sensor_id;sensor_type;location;lat;lon;timestamp;P1;durP1;ratioP1;P2;durP2;ratioP2
49131;SDS011;35149;51.196;6.204;2024-02-21T00:00:11;25.10;;;13.40;;
49131;SDS011;35149;51.196;6.204;2024-02-21T00:02:38;20.08;;;12.57;;
49131;SDS011;35149;51.196;6.204;2024-02-21T00:05:04;20.67;;;12.85;;
49131;SDS011;35149;51.196;6.204;2024-02-21T00:07:32;24.08;;;12.63;;
49131;SDS011;35149;51.196;6.204;2024-02-21T00:09:58;20.42;;;10.70;;
49131;SDS011;35149;51.196;6.204;2024-02-21T00:12:25;21.88;;;12.45;;
49131;SDS011;35149;51.196;6.204;2024-02-21T00:14:52;17.60;;;10.98;;
49131;SDS011;35149;51.196;6.204;2024-02-21T00:17:19;18.70;;;11.25;;
49131;SDS011;35149;51.196;6.204;2024-02-21T00:19:45;20.67;;;11.65;;
49131;SDS011;35149;51.196;6.204;2024-02-21T00:22:12;23.98;;;12.82;;
49131;SDS011;35149;51.196;6.204;2024-02-21T00:24:39;23.83;;;11.90;;
49131;SDS011;35149;51.196;6.204;2024-02-21T00:27:06;21.88;;;11.05;;
49131;SDS011;35149;51.196;6.204;2024-02-21T00:29:32;20.95;;;12.40;;
49131;SDS011;35149;51.196;6.204;2024-02-21T00:32:00;18.05;;;11.20;;
49131;SDS011;35149;51.196;6.204;2024-02-21T00:34:27;20.63;;;12.15;;
49131;SDS011;35149;51.196;6.204;2024-02-21T00:36:54;18.88;;;10.95;;
49131;SDS011;35149;51.196;6.204;2024-02-21T00:39:20;18.20;;;10.85;;
49131;SDS011;35149;51.196;6.204;2024-02-21T00:41:48;16.92;;;11.60;;
49131;SDS011;35149;51.196;6.204;2024-02-21T00:44:14;18.55;;;11.15;;
49131;SDS011;35149;51.196;6.204;2024-02-21T00:46:41;16.70;;;10.60;;
49131;SDS011;35149;51.196;6.204;2024-02-21T00:49:08;20.25;;;11.35;;
49131;SDS011;35149;51.196;6.204;2024-02-21T00:51:35;19.13;;;10.52;;
49131;SDS011;35149;51.196;6.204;2024-02-21T00:54:01;18.75;;;9.90;;
49131;SDS011;35149;51.196;6.204;2024-02-21T00:56:28;19.08;;;10.32;;
49131;SDS011;35149;51.196;6.204;2024-02-21T00:58:56;16.25;;;9.63;;
49131;SDS011;35149;51.196;6.204;2024-02-21T01:01:23;16.77;;;11.02;;
49131;SDS011;35149;51.196;6.204;2024-02-21T01:03:51;19.63;;;11.80;;
49131;SDS011;35149;51.196;6.204;2024-02-21T01:06:22;17.05;;;10.55;;
49131;SDS011;35149;51.196;6.204;2024-02-21T01:08:49;16.95;;;10.05;;
49131;SDS011;35149;51.196;6.204;2024-02-21T01:11:16;18.95;;;11.57;;
49131;SDS011;35149;51.196;6.204;2024-02-21T01:13:44;17.15;;;10.50;;
49131;SDS011;35149;51.196;6.204;2024-02-21T01:16:10;19.08;;;10.75;;
49131;SDS011;35149;51.196;6.204;2024-02-21T01:18:37;21.42;;;10.02;;
49131;SDS011;35149;51.196;6.204;2024-02-21T01:21:06;16.98;;;10.38;;
49131;SDS011;35149;51.196;6.204;2024-02-21T01:23:36;17.13;;;10.60;;
49131;SDS011;35149;51.196;6.204;2024-02-21T01:26:03;17.05;;;9.88;;
49131;SDS011;35149;51.196;6.204;2024-02-21T01:28:31;18.23;;;10.77;;
49131;SDS011;35149;51.196;6.204;2024-02-21T01:30:57;21.30;;;11.38;;
49131;SDS011;35149;51.196;6.204;2024-02-21T01:33:24;15.77;;;9.75;;
49131;SDS011;35149;51.196;6.204;2024-02-21T01:35:51;16.88;;;10.15;;
49131;SDS011;35149;51.196;6.204;2024-02-21T01:38:18;17.45;;;9.68;;
49131;SDS011;35149;51.196;6.204;2024-02-21T01:40:45;16.95;;;9.93;;
49131;SDS011;35149;51.196;6.204;2024-02-21T01:43:19;15.43;;;9.73;;
49131;SDS011;35149;51.196;6.204;2024-02-21T01:45:48;15.98;;;9.65;;
49131;SDS011;35149;51.196;6.204;2024-02-21T01:48:17;17.83;;;11.13;;
49131;SDS011;35149;51.196;6.204;2024-02-21T01:50:45;17.52;;;9.25;;
49131;SDS011;35149;51.196;6.204;2024-02-21T01:53:13;20.50;;;9.73;;
49131;SDS011;35149;51.196;6.204;2024-02-21T01:55:46;15.77;;;8.77;;
49131;SDS011;35149;51.196;6.204;2024-02-21T01:58:14;18.35;;;10.25;;
49131;SDS011;35149;51.196;6.204;2024-02-21T02:00:42;15.15;;;9.77;;
49131;SDS011;35149;51.196;6.204;2024-02-21T02:03:10;12.60;;;8.85;;
49131;SDS011;35149;51.196;6.204;2024-02-21T02:05:43;18.60;;;9.20;;
49131;SDS011;35149;51.196;6.204;2024-02-21T02:08:14;14.45;;;9.35;;
49131;SDS011;35149;51.196;6.204;2024-02-21T02:10:50;15.95;;;10.02;;
49131;SDS011;35149;51.196;6.204;2024-02-21T02:13:18;14.77;;;9.35;;
49131;SDS011;35149;51.196;6.204;2024-02-21T02:15:45;16.90;;;9.00;;
49131;SDS011;35149;51.196;6.204;2024-02-21T02:18:13;14.98;;;8.55;;
49131;SDS011;35149;51.196;6.204;2024-02-21T02:20:41;16.67;;;9.23;;
49131;SDS011;35149;51.196;6.204;2024-02-21T02:26:00;21.42;;;9.23;;
49131;SDS011;35149;51.196;6.204;2024-02-21T02:28:28;16.90;;;9.25;;
49131;SDS011;35149;51.196;6.204;2024-02-21T02:30:54;14.68;;;8.85;;
49131;SDS011;35149;51.196;6.204;2024-02-21T02:33:21;14.27;;;8.55;;
49131;SDS011;35149;51.196;6.204;2024-02-21T02:35:48;18.60;;;9.75;;
49131;SDS011;35149;51.196;6.204;2024-02-21T02:38:15;13.65;;;8.45;;
49131;SDS011;35149;51.196;6.204;2024-02-21T02:40:42;13.02;;;9.27;;
49131;SDS011;35149;51.196;6.204;2024-02-21T02:43:10;16.35;;;8.77;;
49131;SDS011;35149;51.196;6.204;2024-02-21T02:45:36;13.07;;;9.02;;
49131;SDS011;35149;51.196;6.204;2024-02-21T02:48:03;24.58;;;11.55;;
49131;SDS011;35149;51.196;6.204;2024-02-21T02:50:31;17.17;;;9.13;;
49131;SDS011;35149;51.196;6.204;2024-02-21T02:52:58;13.20;;;9.30;;
49131;SDS011;35149;51.196;6.204;2024-02-21T02:55:25;17.95;;;9.18;;
49131;SDS011;35149;51.196;6.204;2024-02-21T02:57:53;15.43;;;8.82;;
49131;SDS011;35149;51.196;6.204;2024-02-21T03:00:20;17.55;;;8.30;;
49131;SDS011;35149;51.196;6.204;2024-02-21T03:02:48;15.05;;;8.52;;
49131;SDS011;35149;51.196;6.204;2024-02-21T03:05:17;15.80;;;8.38;;
49131;SDS011;35149;51.196;6.204;2024-02-21T03:07:46;15.30;;;8.00;;
49131;SDS011;35149;51.196;6.204;2024-02-21T03:10:13;12.43;;;7.70;;
49131;SDS011;35149;51.196;6.204;2024-02-21T03:12:42;14.02;;;8.25;;
49131;SDS011;35149;51.196;6.204;2024-02-21T03:15:09;14.90;;;8.15;;
49131;SDS011;35149;51.196;6.204;2024-02-21T03:17:36;15.27;;;8.38;;
49131;SDS011;35149;51.196;6.204;2024-02-21T03:20:03;13.57;;;8.52;;
49131;SDS011;35149;51.196;6.204;2024-02-21T03:22:38;12.55;;;7.97;;
49131;SDS011;35149;51.196;6.204;2024-02-21T03:25:05;12.73;;;7.60;;
49131;SDS011;35149;51.196;6.204;2024-02-21T03:27:33;12.70;;;7.70;;
49131;SDS011;35149;51.196;6.204;2024-02-21T03:30:00;17.02;;;7.88;;
49131;SDS011;35149;51.196;6.204;2024-02-21T03:32:27;13.98;;;7.72;;
49131;SDS011;35149;51.196;6.204;2024-02-21T03:34:55;12.05;;;7.10;;
49131;SDS011;35149;51.196;6.204;2024-02-21T03:37:22;12.30;;;6.85;;
49131;SDS011;35149;51.196;6.204;2024-02-21T03:39:49;12.30;;;7.50;;
49131;SDS011;35149;51.196;6.204;2024-02-21T03:42:16;12.75;;;6.60;;
49131;SDS011;35149;51.196;6.204;2024-02-21T03:44:42;10.90;;;6.10;;
49131;SDS011;35149;51.196;6.204;2024-02-21T03:47:09;10.60;;;6.93;;
49131;SDS011;35149;51.196;6.204;2024-02-21T03:49:37;11.73;;;6.63;;
49131;SDS011;35149;51.196;6.204;2024-02-21T03:52:05;13.70;;;7.13;;
49131;SDS011;35149;51.196;6.204;2024-02-21T03:54:32;10.60;;;7.05;;
49131;SDS011;35149;51.196;6.204;2024-02-21T03:56:58;8.50;;;6.78;;
49131;SDS011;35149;51.196;6.204;2024-02-21T03:59:25;13.43;;;7.53;;
49131;SDS011;35149;51.196;6.204;2024-02-21T04:01:52;15.50;;;7.80;;
49131;SDS011;35149;51.196;6.204;2024-02-21T04:04:20;10.10;;;6.72;;
49131;SDS011;35149;51.196;6.204;2024-02-21T04:06:47;9.68;;;6.00;;
49131;SDS011;35149;51.196;6.204;2024-02-21T04:09:15;10.98;;;7.47;;
49131;SDS011;35149;51.196;6.204;2024-02-21T04:11:42;12.40;;;6.68;;
49131;SDS011;35149;51.196;6.204;2024-02-21T04:14:09;12.18;;;5.88;;
49131;SDS011;35149;51.196;6.204;2024-02-21T04:16:37;13.27;;;6.75;;
49131;SDS011;35149;51.196;6.204;2024-02-21T04:19:05;12.35;;;6.40;;
49131;SDS011;35149;51.196;6.204;2024-02-21T04:21:32;11.57;;;6.20;;
49131;SDS011;35149;51.196;6.204;2024-02-21T04:23:59;12.32;;;6.07;;
49131;SDS011;35149;51.196;6.204;2024-02-21T04:26:26;10.52;;;6.15;;
49131;SDS011;35149;51.196;6.204;2024-02-21T04:28:53;12.00;;;6.10;;
49131;SDS011;35149;51.196;6.204;2024-02-21T04:31:19;11.50;;;5.93;;
49131;SDS011;35149;51.196;6.204;2024-02-21T04:33:46;11.65;;;6.40;;
49131;SDS011;35149;51.196;6.204;2024-02-21T04:36:13;11.43;;;6.68;;
49131;SDS011;35149;51.196;6.204;2024-02-21T04:38:40;10.60;;;6.55;;
49131;SDS011;35149;51.196;6.204;2024-02-21T04:41:07;14.55;;;6.32;;
49131;SDS011;35149;51.196;6.204;2024-02-21T04:43:34;9.85;;;5.95;;
49131;SDS011;35149;51.196;6.204;2024-02-21T04:46:01;8.80;;;6.38;;
49131;SDS011;35149;51.196;6.204;2024-02-21T04:48:28;9.45;;;5.72;;
49131;SDS011;35149;51.196;6.204;2024-02-21T04:50:54;8.90;;;5.97;;
49131;SDS011;35149;51.196;6.204;2024-02-21T04:53:21;11.85;;;5.93;;
49131;SDS011;35149;51.196;6.204;2024-02-21T04:55:48;10.93;;;5.95;;
49131;SDS011;35149;51.196;6.204;2024-02-21T04:58:15;13.63;;;6.50;;
49131;SDS011;35149;51.196;6.204;2024-02-21T05:00:42;8.48;;;5.35;;
49131;SDS011;35149;51.196;6.204;2024-02-21T05:03:08;12.73;;;6.47;;
49131;SDS011;35149;51.196;6.204;2024-02-21T05:05:35;15.55;;;7.05;;
49131;SDS011;35149;51.196;6.204;2024-02-21T05:08:02;10.85;;;6.40;;
49131;SDS011;35149;51.196;6.204;2024-02-21T05:10:30;9.50;;;6.35;;
49131;SDS011;35149;51.196;6.204;2024-02-21T05:12:57;13.07;;;6.15;;
49131;SDS011;35149;51.196;6.204;2024-02-21T05:15:24;8.13;;;5.75;;
49131;SDS011;35149;51.196;6.204;2024-02-21T05:17:51;12.10;;;6.05;;
49131;SDS011;35149;51.196;6.204;2024-02-21T05:20:18;9.90;;;6.65;;
49131;SDS011;35149;51.196;6.204;2024-02-21T05:22:45;17.30;;;7.22;;
49131;SDS011;35149;51.196;6.204;2024-02-21T05:25:12;13.00;;;6.47;;
49131;SDS011;35149;51.196;6.204;2024-02-21T05:27:39;10.50;;;6.85;;
49131;SDS011;35149;51.196;6.204;2024-02-21T05:30:06;10.35;;;7.00;;
49131;SDS011;35149;51.196;6.204;2024-02-21T05:32:33;15.65;;;6.72;;
49131;SDS011;35149;51.196;6.204;2024-02-21T05:35:00;11.65;;;6.85;;
49131;SDS011;35149;51.196;6.204;2024-02-21T05:37:27;14.38;;;6.72;;
49131;SDS011;35149;51.196;6.204;2024-02-21T05:39:53;15.15;;;7.32;;
49131;SDS011;35149;51.196;6.204;2024-02-21T05:42:20;11.38;;;6.93;;
49131;SDS011;35149;51.196;6.204;2024-02-21T05:44:47;13.90;;;7.13;;
49131;SDS011;35149;51.196;6.204;2024-02-21T05:47:14;11.15;;;7.60;;
49131;SDS011;35149;51.196;6.204;2024-02-21T05:49:41;15.55;;;7.43;;
49131;SDS011;35149;51.196;6.204;2024-02-21T05:52:08;13.32;;;7.15;;
49131;SDS011;35149;51.196;6.204;2024-02-21T05:54:37;14.80;;;8.00;;
49131;SDS011;35149;51.196;6.204;2024-02-21T05:57:05;12.75;;;7.05;;
49131;SDS011;35149;51.196;6.204;2024-02-21T05:59:33;11.88;;;6.90;;
49131;SDS011;35149;51.196;6.204;2024-02-21T06:02:01;13.13;;;6.78;;
49131;SDS011;35149;51.196;6.204;2024-02-21T06:04:30;14.30;;;7.90;;
49131;SDS011;35149;51.196;6.204;2024-02-21T06:06:57;12.68;;;7.15;;
49131;SDS011;35149;51.196;6.204;2024-02-21T06:09:23;11.30;;;6.28;;
49131;SDS011;35149;51.196;6.204;2024-02-21T06:11:50;12.77;;;7.35;;
49131;SDS011;35149;51.196;6.204;2024-02-21T06:14:17;16.10;;;7.30;;
49131;SDS011;35149;51.196;6.204;2024-02-21T06:16:44;12.50;;;7.45;;
49131;SDS011;35149;51.196;6.204;2024-02-21T06:19:11;13.60;;;7.25;;
49131;SDS011;35149;51.196;6.204;2024-02-21T06:21:37;11.93;;;6.47;;
49131;SDS011;35149;51.196;6.204;2024-02-21T06:24:04;12.60;;;7.72;;
49131;SDS011;35149;51.196;6.204;2024-02-21T06:26:31;13.15;;;7.80;;
49131;SDS011;35149;51.196;6.204;2024-02-21T06:28:58;15.20;;;7.20;;
49131;SDS011;35149;51.196;6.204;2024-02-21T06:31:28;10.60;;;6.50;;
49131;SDS011;35149;51.196;6.204;2024-02-21T06:33:55;12.52;;;6.95;;
49131;SDS011;35149;51.196;6.204;2024-02-21T06:36:22;8.32;;;6.43;;
49131;SDS011;35149;51.196;6.204;2024-02-21T06:38:49;9.55;;;6.28;;
49131;SDS011;35149;51.196;6.204;2024-02-21T06:41:16;10.70;;;6.57;;
49131;SDS011;35149;51.196;6.204;2024-02-21T06:43:48;12.73;;;7.22;;
49131;SDS011;35149;51.196;6.204;2024-02-21T06:46:25;13.63;;;6.80;;
49131;SDS011;35149;51.196;6.204;2024-02-21T06:48:53;8.50;;;6.00;;
49131;SDS011;35149;51.196;6.204;2024-02-21T06:51:22;10.00;;;6.03;;
49131;SDS011;35149;51.196;6.204;2024-02-21T06:53:49;8.30;;;5.05;;
49131;SDS011;35149;51.196;6.204;2024-02-21T06:56:16;10.98;;;5.70;;
49131;SDS011;35149;51.196;6.204;2024-02-21T06:58:43;9.48;;;6.13;;
49131;SDS011;35149;51.196;6.204;2024-02-21T07:01:09;7.13;;;5.07;;
49131;SDS011;35149;51.196;6.204;2024-02-21T07:03:37;7.53;;;5.18;;
49131;SDS011;35149;51.196;6.204;2024-02-21T07:06:03;9.90;;;4.78;;
49131;SDS011;35149;51.196;6.204;2024-02-21T07:08:30;10.40;;;5.40;;
49131;SDS011;35149;51.196;6.204;2024-02-21T07:10:57;12.25;;;5.10;;
49131;SDS011;35149;51.196;6.204;2024-02-21T07:13:24;11.48;;;4.90;;
49131;SDS011;35149;51.196;6.204;2024-02-21T07:15:51;9.63;;;5.05;;
49131;SDS011;35149;51.196;6.204;2024-02-21T07:18:18;10.63;;;4.72;;
49131;SDS011;35149;51.196;6.204;2024-02-21T07:20:45;8.73;;;4.75;;
49131;SDS011;35149;51.196;6.204;2024-02-21T07:23:12;12.73;;;5.60;;
49131;SDS011;35149;51.196;6.204;2024-02-21T07:25:39;7.25;;;4.25;;
49131;SDS011;35149;51.196;6.204;2024-02-21T07:28:06;8.68;;;3.65;;
49131;SDS011;35149;51.196;6.204;2024-02-21T07:30:33;7.45;;;4.10;;
49131;SDS011;35149;51.196;6.204;2024-02-21T07:33:02;8.95;;;4.50;;
49131;SDS011;35149;51.196;6.204;2024-02-21T07:35:29;6.50;;;4.68;;
49131;SDS011;35149;51.196;6.204;2024-02-21T07:37:56;8.38;;;4.50;;
49131;SDS011;35149;51.196;6.204;2024-02-21T07:40:23;6.95;;;4.13;;
49131;SDS011;35149;51.196;6.204;2024-02-21T07:42:50;9.73;;;5.20;;
49131;SDS011;35149;51.196;6.204;2024-02-21T07:45:17;7.63;;;4.90;;
49131;SDS011;35149;51.196;6.204;2024-02-21T07:50:16;9.82;;;4.47;;
49131;SDS011;35149;51.196;6.204;2024-02-21T07:52:43;6.70;;;4.43;;
49131;SDS011;35149;51.196;6.204;2024-02-21T07:55:10;8.50;;;4.43;;
49131;SDS011;35149;51.196;6.204;2024-02-21T07:57:37;8.75;;;5.38;;
49131;SDS011;35149;51.196;6.204;2024-02-21T08:00:04;13.52;;;5.80;;
49131;SDS011;35149;51.196;6.204;2024-02-21T08:02:37;11.02;;;5.55;;
49131;SDS011;35149;51.196;6.204;2024-02-21T08:05:04;10.05;;;4.93;;
49131;SDS011;35149;51.196;6.204;2024-02-21T08:07:31;12.43;;;5.35;;
49131;SDS011;35149;51.196;6.204;2024-02-21T08:09:58;10.23;;;4.75;;
49131;SDS011;35149;51.196;6.204;2024-02-21T08:12:25;9.98;;;5.75;;
49131;SDS011;35149;51.196;6.204;2024-02-21T08:14:52;13.93;;;5.93;;
49131;SDS011;35149;51.196;6.204;2024-02-21T08:17:18;9.85;;;5.10;;
49131;SDS011;35149;51.196;6.204;2024-02-21T08:19:45;10.38;;;4.85;;
49131;SDS011;35149;51.196;6.204;2024-02-21T08:22:12;9.95;;;5.22;;
49131;SDS011;35149;51.196;6.204;2024-02-21T08:24:39;10.27;;;5.00;;
49131;SDS011;35149;51.196;6.204;2024-02-21T08:27:05;9.15;;;5.18;;
49131;SDS011;35149;51.196;6.204;2024-02-21T08:29:32;8.40;;;4.70;;
49131;SDS011;35149;51.196;6.204;2024-02-21T08:31:59;6.05;;;4.57;;
49131;SDS011;35149;51.196;6.204;2024-02-21T08:34:26;8.57;;;5.35;;
49131;SDS011;35149;51.196;6.204;2024-02-21T08:36:55;7.88;;;4.57;;
49131;SDS011;35149;51.196;6.204;2024-02-21T08:39:22;11.43;;;5.53;;
49131;SDS011;35149;51.196;6.204;2024-02-21T08:41:48;9.23;;;4.68;;
49131;SDS011;35149;51.196;6.204;2024-02-21T08:44:23;8.70;;;5.07;;
49131;SDS011;35149;51.196;6.204;2024-02-21T08:46:53;9.48;;;5.93;;
49131;SDS011;35149;51.196;6.204;2024-02-21T08:49:20;9.38;;;5.22;;
49131;SDS011;35149;51.196;6.204;2024-02-21T08:51:47;9.27;;;4.72;;
49131;SDS011;35149;51.196;6.204;2024-02-21T08:54:14;11.93;;;5.28;;
49131;SDS011;35149;51.196;6.204;2024-02-21T08:56:41;7.10;;;4.70;;
49131;SDS011;35149;51.196;6.204;2024-02-21T08:59:08;11.52;;;5.22;;
49131;SDS011;35149;51.196;6.204;2024-02-21T09:01:35;6.35;;;4.10;;
49131;SDS011;35149;51.196;6.204;2024-02-21T09:04:02;11.02;;;5.45;;
49131;SDS011;35149;51.196;6.204;2024-02-21T09:06:29;7.60;;;4.22;;
49131;SDS011;35149;51.196;6.204;2024-02-21T09:08:58;8.43;;;4.38;;
49131;SDS011;35149;51.196;6.204;2024-02-21T09:11:25;7.28;;;3.78;;
49131;SDS011;35149;51.196;6.204;2024-02-21T09:13:53;6.90;;;3.78;;
49131;SDS011;35149;51.196;6.204;2024-02-21T09:16:20;8.48;;;4.53;;
49131;SDS011;35149;51.196;6.204;2024-02-21T09:18:48;6.47;;;4.13;;
49131;SDS011;35149;51.196;6.204;2024-02-21T09:21:15;9.13;;;4.18;;
49131;SDS011;35149;51.196;6.204;2024-02-21T09:23:42;8.20;;;4.63;;
49131;SDS011;35149;51.196;6.204;2024-02-21T09:26:10;5.95;;;4.45;;
49131;SDS011;35149;51.196;6.204;2024-02-21T09:28:40;8.20;;;4.28;;
49131;SDS011;35149;51.196;6.204;2024-02-21T09:31:07;10.20;;;4.25;;
49131;SDS011;35149;51.196;6.204;2024-02-21T09:33:34;7.95;;;4.20;;
49131;SDS011;35149;51.196;6.204;2024-02-21T09:36:03;6.03;;;3.40;;
49131;SDS011;35149;51.196;6.204;2024-02-21T09:38:31;7.22;;;3.15;;
49131;SDS011;35149;51.196;6.204;2024-02-21T09:40:59;6.60;;;3.97;;
49131;SDS011;35149;51.196;6.204;2024-02-21T09:43:33;3.85;;;3.15;;
49131;SDS011;35149;51.196;6.204;2024-02-21T09:46:02;4.50;;;3.10;;
49131;SDS011;35149;51.196;6.204;2024-02-21T09:51:17;4.03;;;2.80;;
49131;SDS011;35149;51.196;6.204;2024-02-21T09:53:45;5.30;;;3.25;;
49131;SDS011;35149;51.196;6.204;2024-02-21T09:56:28;4.57;;;2.92;;
49131;SDS011;35149;51.196;6.204;2024-02-21T09:58:55;6.43;;;3.70;;
49131;SDS011;35149;51.196;6.204;2024-02-21T10:01:23;8.02;;;2.97;;
49131;SDS011;35149;51.196;6.204;2024-02-21T10:04:00;6.28;;;3.20;;
49131;SDS011;35149;51.196;6.204;2024-02-21T10:06:29;5.15;;;2.53;;
49131;SDS011;35149;51.196;6.204;2024-02-21T10:08:56;8.02;;;3.45;;
49131;SDS011;35149;51.196;6.204;2024-02-21T10:11:23;6.30;;;2.42;;
49131;SDS011;35149;51.196;6.204;2024-02-21T10:13:51;3.50;;;2.90;;
49131;SDS011;35149;51.196;6.204;2024-02-21T10:16:28;7.35;;;3.13;;
49131;SDS011;35149;51.196;6.204;2024-02-21T10:18:55;6.40;;;3.55;;
49131;SDS011;35149;51.196;6.204;2024-02-21T10:21:22;5.88;;;3.00;;
49131;SDS011;35149;51.196;6.204;2024-02-21T10:23:49;7.25;;;4.15;;
49131;SDS011;35149;51.196;6.204;2024-02-21T10:26:17;4.95;;;3.20;;
49131;SDS011;35149;51.196;6.204;2024-02-21T10:28:45;7.63;;;3.63;;
49131;SDS011;35149;51.196;6.204;2024-02-21T10:31:24;7.75;;;4.00;;
49131;SDS011;35149;51.196;6.204;2024-02-21T10:33:56;7.10;;;3.85;;
49131;SDS011;35149;51.196;6.204;2024-02-21T10:36:24;5.70;;;3.60;;
49131;SDS011;35149;51.196;6.204;2024-02-21T10:38:51;4.75;;;3.15;;
49131;SDS011;35149;51.196;6.204;2024-02-21T10:41:19;6.43;;;3.20;;
49131;SDS011;35149;51.196;6.204;2024-02-21T10:43:51;6.80;;;2.97;;
49131;SDS011;35149;51.196;6.204;2024-02-21T10:46:21;8.65;;;4.45;;
49131;SDS011;35149;51.196;6.204;2024-02-21T10:51:52;7.30;;;3.67;;
49131;SDS011;35149;51.196;6.204;2024-02-21T10:57:34;6.70;;;3.38;;
49131;SDS011;35149;51.196;6.204;2024-02-21T11:00:01;5.97;;;3.38;;
49131;SDS011;35149;51.196;6.204;2024-02-21T11:02:29;11.10;;;3.65;;
49131;SDS011;35149;51.196;6.204;2024-02-21T11:04:57;6.22;;;3.95;;
49131;SDS011;35149;51.196;6.204;2024-02-21T11:07:25;8.13;;;3.35;;
49131;SDS011;35149;51.196;6.204;2024-02-21T11:09:53;6.20;;;3.10;;
49131;SDS011;35149;51.196;6.204;2024-02-21T11:12:23;4.25;;;3.30;;
49131;SDS011;35149;51.196;6.204;2024-02-21T11:14:52;8.75;;;3.67;;
49131;SDS011;35149;51.196;6.204;2024-02-21T11:17:19;5.70;;;3.20;;
49131;SDS011;35149;51.196;6.204;2024-02-21T11:19:52;8.68;;;3.15;;
49131;SDS011;35149;51.196;6.204;2024-02-21T11:22:20;6.70;;;3.13;;
49131;SDS011;35149;51.196;6.204;2024-02-21T11:24:49;5.05;;;3.13;;
49131;SDS011;35149;51.196;6.204;2024-02-21T11:27:16;5.40;;;2.58;;
49131;SDS011;35149;51.196;6.204;2024-02-21T11:29:54;6.03;;;3.20;;
49131;SDS011;35149;51.196;6.204;2024-02-21T11:32:25;5.30;;;3.20;;
49131;SDS011;35149;51.196;6.204;2024-02-21T11:34:55;5.75;;;3.38;;
49131;SDS011;35149;51.196;6.204;2024-02-21T11:37:28;4.78;;;2.95;;
49131;SDS011;35149;51.196;6.204;2024-02-21T11:39:56;6.93;;;3.25;;
49131;SDS011;35149;51.196;6.204;2024-02-21T11:42:25;5.32;;;3.08;;
49131;SDS011;35149;51.196;6.204;2024-02-21T11:44:53;6.35;;;3.50;;
49131;SDS011;35149;51.196;6.204;2024-02-21T11:47:23;5.32;;;3.75;;
49131;SDS011;35149;51.196;6.204;2024-02-21T11:49:50;5.75;;;3.33;;
49131;SDS011;35149;51.196;6.204;2024-02-21T11:52:23;5.82;;;3.25;;
49131;SDS011;35149;51.196;6.204;2024-02-21T11:54:53;3.45;;;3.08;;
49131;SDS011;35149;51.196;6.204;2024-02-21T11:57:21;4.88;;;3.25;;
49131;SDS011;35149;51.196;6.204;2024-02-21T11:59:48;5.32;;;3.28;;
49131;SDS011;35149;51.196;6.204;2024-02-21T12:02:23;3.70;;;3.15;;
49131;SDS011;35149;51.196;6.204;2024-02-21T12:04:49;4.07;;;3.00;;
49131;SDS011;35149;51.196;6.204;2024-02-21T12:07:16;6.00;;;2.88;;
49131;SDS011;35149;51.196;6.204;2024-02-21T12:09:44;5.10;;;2.92;;
49131;SDS011;35149;51.196;6.204;2024-02-21T12:12:10;5.75;;;3.15;;
49131;SDS011;35149;51.196;6.204;2024-02-21T12:14:37;4.22;;;2.92;;
49131;SDS011;35149;51.196;6.204;2024-02-21T12:17:04;8.77;;;4.78;;
49131;SDS011;35149;51.196;6.204;2024-02-21T12:19:32;5.40;;;3.17;;
49131;SDS011;35149;51.196;6.204;2024-02-21T12:22:01;5.95;;;3.03;;
49131;SDS011;35149;51.196;6.204;2024-02-21T12:24:32;3.55;;;2.80;;
49131;SDS011;35149;51.196;6.204;2024-02-21T12:26:58;3.70;;;2.88;;
49131;SDS011;35149;51.196;6.204;2024-02-21T12:29:26;7.07;;;3.17;;
49131;SDS011;35149;51.196;6.204;2024-02-21T12:31:53;3.72;;;3.28;;
49131;SDS011;35149;51.196;6.204;2024-02-21T12:34:21;6.18;;;3.33;;
49131;SDS011;35149;51.196;6.204;2024-02-21T12:37:04;8.57;;;3.80;;
49131;SDS011;35149;51.196;6.204;2024-02-21T12:39:31;4.97;;;2.92;;
49131;SDS011;35149;51.196;6.204;2024-02-21T12:41:58;5.75;;;2.92;;
49131;SDS011;35149;51.196;6.204;2024-02-21T12:44:25;7.45;;;4.05;;
49131;SDS011;35149;51.196;6.204;2024-02-21T12:46:53;4.50;;;3.47;;
49131;SDS011;35149;51.196;6.204;2024-02-21T12:49:21;6.57;;;3.95;;
49131;SDS011;35149;51.196;6.204;2024-02-21T12:51:48;6.63;;;4.22;;
49131;SDS011;35149;51.196;6.204;2024-02-21T12:54:15;7.05;;;3.45;;
49131;SDS011;35149;51.196;6.204;2024-02-21T12:56:42;5.65;;;3.10;;
49131;SDS011;35149;51.196;6.204;2024-02-21T12:59:08;5.45;;;3.25;;
49131;SDS011;35149;51.196;6.204;2024-02-21T13:01:36;4.35;;;3.63;;
49131;SDS011;35149;51.196;6.204;2024-02-21T13:04:04;7.15;;;3.05;;
49131;SDS011;35149;51.196;6.204;2024-02-21T13:06:31;4.78;;;3.58;;
49131;SDS011;35149;51.196;6.204;2024-02-21T13:08:58;4.22;;;3.08;;
49131;SDS011;35149;51.196;6.204;2024-02-21T13:11:25;6.40;;;3.15;;
49131;SDS011;35149;51.196;6.204;2024-02-21T13:13:57;6.88;;;3.67;;
49131;SDS011;35149;51.196;6.204;2024-02-21T13:16:24;4.18;;;3.03;;
49131;SDS011;35149;51.196;6.204;2024-02-21T13:18:52;9.13;;;3.88;;
49131;SDS011;35149;51.196;6.204;2024-02-21T13:21:19;4.75;;;3.03;;
49131;SDS011;35149;51.196;6.204;2024-02-21T13:23:46;3.95;;;3.53;;
49131;SDS011;35149;51.196;6.204;2024-02-21T13:26:13;4.68;;;3.47;;
49131;SDS011;35149;51.196;6.204;2024-02-21T13:28:40;5.78;;;3.17;;
49131;SDS011;35149;51.196;6.204;2024-02-21T13:31:07;5.07;;;3.15;;
49131;SDS011;35149;51.196;6.204;2024-02-21T13:33:34;7.45;;;3.28;;
49131;SDS011;35149;51.196;6.204;2024-02-21T13:36:02;3.28;;;2.67;;
49131;SDS011;35149;51.196;6.204;2024-02-21T13:38:30;4.90;;;3.40;;
49131;SDS011;35149;51.196;6.204;2024-02-21T13:40:56;8.18;;;3.20;;
49131;SDS011;35149;51.196;6.204;2024-02-21T13:43:23;4.13;;;2.70;;
49131;SDS011;35149;51.196;6.204;2024-02-21T13:45:57;6.38;;;3.05;;
49131;SDS011;35149;51.196;6.204;2024-02-21T13:48:25;5.80;;;3.00;;
49131;SDS011;35149;51.196;6.204;2024-02-21T13:50:54;9.23;;;4.20;;
49131;SDS011;35149;51.196;6.204;2024-02-21T13:53:21;6.28;;;3.78;;
49131;SDS011;35149;51.196;6.204;2024-02-21T13:55:49;6.47;;;3.08;;
49131;SDS011;35149;51.196;6.204;2024-02-21T13:58:16;5.88;;;3.38;;
49131;SDS011;35149;51.196;6.204;2024-02-21T14:00:43;4.72;;;3.47;;
49131;SDS011;35149;51.196;6.204;2024-02-21T14:03:11;5.25;;;2.70;;
49131;SDS011;35149;51.196;6.204;2024-02-21T14:05:38;7.65;;;3.30;;
49131;SDS011;35149;51.196;6.204;2024-02-21T14:08:08;2.83;;;2.47;;
49131;SDS011;35149;51.196;6.204;2024-02-21T14:10:36;6.35;;;2.88;;
49131;SDS011;35149;51.196;6.204;2024-02-21T14:13:03;3.10;;;2.75;;
49131;SDS011;35149;51.196;6.204;2024-02-21T14:15:30;7.63;;;2.55;;
49131;SDS011;35149;51.196;6.204;2024-02-21T14:17:57;5.53;;;3.42;;
49131;SDS011;35149;51.196;6.204;2024-02-21T14:20:24;3.25;;;2.42;;
49131;SDS011;35149;51.196;6.204;2024-02-21T14:22:51;3.20;;;2.00;;
49131;SDS011;35149;51.196;6.204;2024-02-21T14:25:18;4.47;;;2.22;;
49131;SDS011;35149;51.196;6.204;2024-02-21T14:27:44;4.28;;;2.65;;
49131;SDS011;35149;51.196;6.204;2024-02-21T14:30:11;6.40;;;2.63;;
49131;SDS011;35149;51.196;6.204;2024-02-21T14:32:40;4.75;;;2.63;;
49131;SDS011;35149;51.196;6.204;2024-02-21T14:35:10;4.72;;;2.80;;
49131;SDS011;35149;51.196;6.204;2024-02-21T14:37:37;5.00;;;2.70;;
49131;SDS011;35149;51.196;6.204;2024-02-21T14:40:04;4.45;;;2.15;;
49131;SDS011;35149;51.196;6.204;2024-02-21T14:42:31;4.30;;;2.78;;
49131;SDS011;35149;51.196;6.204;2024-02-21T14:44:58;3.63;;;2.83;;
49131;SDS011;35149;51.196;6.204;2024-02-21T14:47:31;4.53;;;2.47;;
49131;SDS011;35149;51.196;6.204;2024-02-21T14:49:59;2.80;;;2.30;;
49131;SDS011;35149;51.196;6.204;2024-02-21T14:52:26;5.45;;;2.78;;
49131;SDS011;35149;51.196;6.204;2024-02-21T14:54:56;4.07;;;2.38;;
49131;SDS011;35149;51.196;6.204;2024-02-21T14:57:23;4.47;;;2.33;;